Time;durP1;ratioP1;P1;durP2;ratioP2;P2;SDS_P1;SDS_P2;PMS_P1;PMS_P2;Temp;Humidity;BMP_temperature;BMP_pressure;BME280_temperature;BME280_humidity;BME280_pressure;Samples;Min_cycle;Max_cycle;Signal;HPM_P1;HPM_P2
2022/04/21 00:01:13;;;;;;;0.50;0.50;;;;;;;14.57;41.15;100757.88;5183725;28;20098;-79
2022/04/21 00:03:43;;;;;;;0.60;0.60;;;;;;;14.35;41.35;100768.47;5162715;28;20072;-79
2022/04/21 00:06:14;;;;;;;0.30;0.30;;;;;;;14.07;42.90;100764.38;5142581;28;20534;-79
2022/04/21 00:08:44;;;;;;;1.52;0.43;;;;;;;14.20;42.51;100754.16;5160239;28;20113;-79
2022/04/21 00:11:18;;;;;;;0.60;0.60;;;;;;;14.28;41.33;100759.09;5160511;28;20038;-79
2022/04/21 00:13:48;;;;;;;1.10;1.10;;;;;;;14.32;41.24;100756.28;5163981;28;20609;-79
2022/04/21 00:16:19;;;;;;;0.40;0.40;;;;;;;14.35;41.47;100749.16;5143952;28;20036;-79
2022/04/21 00:18:52;;;;;;;0.47;0.47;;;;;;;14.36;41.25;100754.38;5160107;28;20052;-79
2022/04/21 00:23:25;;;;;;;0.40;0.40;;;;;;;14.30;41.20;100744.91;5142374;28;20029;-79
2022/04/21 00:24:13;;;;;;;0.45;0.45;;;;;;;14.28;41.19;100745.91;5158511;28;20498;-79
2022/04/21 00:26:44;;;;;;;0.75;0.75;;;;;;;14.22;41.30;100746.19;5160296;28;20041;-79
2022/04/21 00:29:14;;;;;;;0.32;0.32;;;;;;;14.15;41.61;100751.72;5135196;28;20050;-79
2022/04/21 00:31:45;;;;;;;0.60;0.60;;;;;;;14.15;41.02;100748.22;5176745;28;20041;-79
2022/04/21 00:34:18;;;;;;;0.50;0.50;;;;;;;14.17;41.75;100744.56;5168202;28;20038;-79
2022/04/21 00:36:49;;;;;;;0.55;0.55;;;;;;;14.12;41.70;100736.00;5161240;28;20026;-79
2022/04/21 00:39:19;;;;;;;1.95;1.27;;;;;;;14.12;41.56;100740.44;5158712;28;20060;-79
2022/04/21 00:42:01;;;;;;;0.40;0.40;;;;;;;14.10;41.44;100748.41;5160814;28;20121;-79
2022/04/21 00:44:33;;;;;;;0.95;0.93;;;;;;;14.13;41.87;100750.06;5144677;28;20076;-79
2022/04/21 00:47:05;;;;;;;0.35;0.35;;;;;;;14.08;42.14;100741.47;5160530;28;20402;-79
2022/04/21 00:49:36;;;;;;;0.85;0.73;;;;;;;14.02;42.03;100739.94;5158257;28;20530;-82
2022/04/21 00:52:07;;;;;;;0.60;0.60;;;;;;;14.04;41.82;100743.38;5177883;28;20095;-79
2022/04/21 00:54:38;;;;;;;0.60;0.60;;;;;;;14.05;42.00;100741.63;5159422;28;20282;-80
2022/04/21 00:57:09;;;;;;;0.60;0.60;;;;;;;14.02;42.69;100745.22;5177926;28;20026;-79
2022/04/21 00:59:40;;;;;;;0.50;0.50;;;;;;;14.04;42.23;100742.53;5174734;28;20488;-79
2022/04/21 01:05:03;;;;;;;0.85;0.85;;;;;;;13.89;42.29;100730.81;5155640;28;20053;-78
2022/04/21 01:07:37;;;;;;;1.42;0.88;;;;;;;13.69;44.54;100736.00;5142162;28;20039;-77
2022/04/21 01:10:11;;;;;;;;;;;;;;;13.61;43.03;100729.28;5146695;28;20036;-78
2022/04/21 01:12:43;;;;;;;0.40;0.40;;;;;;;13.58;42.89;100729.44;5158191;28;19922;-78
2022/04/21 01:15:13;;;;;;;0.40;0.40;;;;;;;13.33;44.36;100738.25;5145467;28;20264;-78
2022/04/21 01:17:45;;;;;;;0.50;0.50;;;;;;;12.98;45.79;100740.44;5146336;28;20090;-78
2022/04/21 01:20:19;;;;;;;0.28;0.28;;;;;;;13.44;43.50;100730.81;5159169;28;20237;-78
2022/04/21 01:22:51;;;;;;;4.20;2.42;;;;;;;13.50;43.26;100727.06;5138661;28;20251;-77
2022/04/21 01:25:23;;;;;;;0.30;0.30;;;;;;;13.11;45.83;100719.75;5140876;28;20030;-77
2022/04/21 01:27:58;;;;;;;0.38;0.38;;;;;;;13.15;44.94;100727.50;5134641;28;20061;-79
2022/04/21 01:30:29;;;;;;;0.22;0.22;;;;;;;13.32;43.60;100718.09;5108935;28;20268;-78
2022/04/21 01:33:02;;;;;;;0.30;0.30;;;;;;;13.34;43.39;100732.06;5123245;28;20042;-78
2022/04/21 01:35:32;;;;;;;0.50;0.50;;;;;;;13.30;43.37;100720.78;5129160;28;20129;-78
2022/04/21 01:41:11;;;;;;;0.75;0.60;;;;;;;13.20;43.88;100722.91;5122234;28;20038;-77
2022/04/21 01:43:43;;;;;;;0.73;0.73;;;;;;;13.11;44.23;100714.50;5105153;28;20511;-79
2022/04/21 01:46:14;;;;;;;0.60;0.60;;;;;;;13.10;45.30;100710.16;5139323;28;20030;-78
2022/04/21 01:48:44;;;;;;;0.22;0.22;;;;;;;13.10;44.10;100718.88;5128380;28;20035;-78
2022/04/21 01:51:14;;;;;;;0.50;0.50;;;;;;;12.84;45.54;100718.13;5142673;28;20039;-78
2022/04/21 01:53:45;;;;;;;1.23;0.82;;;;;;;13.12;44.30;100717.06;5145597;28;20034;-78
2022/04/21 01:56:16;;;;;;;0.22;0.22;;;;;;;13.18;44.04;100708.91;5163578;28;20097;-78
2022/04/21 01:58:47;;;;;;;0.52;0.52;;;;;;;13.14;43.46;100703.84;5166295;28;20041;-78
2022/04/21 02:01:17;;;;;;;0.38;0.38;;;;;;;13.17;43.69;100709.00;5169198;28;20161;-78
2022/04/21 02:03:47;;;;;;;0.40;0.40;;;;;;;13.12;43.94;100706.53;5149708;28;20037;-78
2022/04/21 02:06:18;;;;;;;0.57;0.57;;;;;;;13.13;43.46;100699.50;5165675;28;20031;-78
2022/04/21 02:08:49;;;;;;;0.65;0.65;;;;;;;13.09;43.76;100698.75;5162522;28;20031;-78
2022/04/21 02:11:19;;;;;;;0.80;0.63;;;;;;;13.13;43.77;100702.97;5147270;28;20058;-78
2022/04/21 02:13:51;;;;;;;0.50;0.50;;;;;;;13.11;43.59;100701.31;5135199;28;20035;-78
2022/04/21 02:16:22;;;;;;;0.30;0.30;;;;;;;13.06;43.77;100702.34;5142364;28;20086;-78
2022/04/21 02:18:52;;;;;;;0.20;0.20;;;;;;;13.14;44.01;100704.69;5112039;28;20059;-78
2022/04/21 02:21:22;;;;;;;0.63;0.63;;;;;;;13.06;44.90;100697.06;5150522;28;20035;-78
2022/04/21 02:23:53;;;;;;;4.13;0.70;;;;;;;13.08;43.89;100699.66;5164352;28;20038;-79
2022/04/21 02:26:23;;;;;;;0.95;0.95;;;;;;;13.04;44.04;100696.31;5181700;28;20096;-78
2022/04/21 02:28:57;;;;;;;0.30;0.30;;;;;;;12.99;43.96;100689.47;5162614;28;20338;-78
2022/04/21 02:31:28;;;;;;;0.43;0.43;;;;;;;12.96;43.60;100694.84;5153288;28;20035;-78
2022/04/21 02:33:58;;;;;;;0.30;0.30;;;;;;;12.91;43.54;100682.72;5133835;28;20043;-78
2022/04/21 02:36:28;;;;;;;0.68;0.68;;;;;;;12.91;43.60;100690.63;5159848;28;20109;-78
2022/04/21 02:38:59;;;;;;;0.40;0.40;;;;;;;12.90;44.48;100694.19;5125396;28;20450;-78
2022/04/21 02:41:29;;;;;;;0.68;0.68;;;;;;;12.93;43.98;100681.81;5137970;28;20734;-78
2022/04/21 02:44:00;;;;;;;0.80;0.80;;;;;;;12.94;44.33;100687.03;5120064;28;20038;-79
2022/04/21 02:46:33;;;;;;;0.60;0.60;;;;;;;12.90;44.29;100686.28;5163806;28;20030;-77
2022/04/21 02:49:04;;;;;;;0.40;0.40;;;;;;;12.88;44.10;100688.09;5144067;28;20046;-78
2022/04/21 02:51:35;;;;;;;1.98;1.38;;;;;;;12.85;44.14;100680.31;5162897;28;20442;-78
2022/04/21 02:59:53;;;;;;;0.80;0.80;;;;;;;12.59;44.81;100679.50;5145462;28;20393;-78
2022/04/21 03:02:24;;;;;;;0.40;0.40;;;;;;;12.42;45.25;100679.25;5148258;28;20537;-78
2022/04/21 03:04:55;;;;;;;0.50;0.50;;;;;;;12.44;45.23;100682.66;5161493;28;20046;-78
2022/04/21 03:07:25;;;;;;;0.50;0.50;;;;;;;12.41;45.83;100681.00;5110966;28;20046;-78
2022/04/21 03:09:56;;;;;;;0.52;0.52;;;;;;;12.50;44.70;100671.06;5143576;28;20035;-78
2022/04/21 03:12:27;;;;;;;0.38;0.38;;;;;;;12.54;44.79;100677.97;5113258;28;20074;-78
2022/04/21 03:14:58;;;;;;;0.60;0.60;;;;;;;12.53;44.97;100682.34;5170002;28;20050;-79
2022/04/21 03:17:29;;;;;;;0.47;0.47;;;;;;;12.53;44.55;100682.34;5148104;28;20034;-78
2022/04/21 03:19:59;;;;;;;0.30;0.30;;;;;;;12.53;44.73;100684.97;5124349;28;20069;-79
2022/04/21 03:25:20;;;;;;;0.30;0.30;;;;;;;12.70;45.39;100686.13;5167939;28;20042;-79
2022/04/21 03:27:51;;;;;;;2.22;1.67;;;;;;;12.68;45.08;100680.09;5134687;28;20481;-79
2022/04/21 03:30:22;;;;;;;0.90;0.90;;;;;;;12.50;45.17;100682.47;5167585;28;20049;-78
2022/04/21 03:32:52;;;;;;;0.30;0.30;;;;;;;12.49;44.99;100691.28;5148434;28;20050;-78
2022/04/21 03:35:24;;;;;;;0.75;0.75;;;;;;;12.47;45.25;100687.84;5166181;28;20037;-78
2022/04/21 03:37:54;;;;;;;0.47;0.47;;;;;;;12.47;45.25;100693.09;5168127;28;20034;-78
2022/04/21 03:40:25;;;;;;;0.80;0.80;;;;;;;12.43;45.17;100691.50;5168763;28;20038;-78
2022/04/21 03:42:55;;;;;;;1.13;0.55;;;;;;;12.39;45.16;100690.75;5145561;28;20039;-78
2022/04/21 03:45:26;;;;;;;0.40;0.40;;;;;;;12.40;45.34;100689.81;5145125;28;20027;-78
2022/04/21 03:47:58;;;;;;;0.50;0.50;;;;;;;12.41;45.43;100695.97;5161495;28;20070;-78
2022/04/21 03:50:31;;;;;;;0.40;0.40;;;;;;;12.36;45.59;100690.84;5142943;28;20609;-78
2022/04/21 03:53:02;;;;;;;0.82;0.82;;;;;;;12.33;45.54;100693.56;5127248;28;20093;-78
2022/04/21 03:55:32;;;;;;;0.70;0.70;;;;;;;12.31;45.30;100698.06;5128833;28;20047;-79
2022/04/21 03:58:03;;;;;;;0.40;0.40;;;;;;;12.25;45.45;100691.22;5129843;28;20118;-79
2022/04/21 04:00:34;;;;;;;0.60;0.60;;;;;;;12.22;45.69;100698.38;5138589;28;20402;-78
2022/04/21 04:03:04;;;;;;;0.43;0.43;;;;;;;12.26;46.03;100706.09;5132837;28;20105;-79
2022/04/21 04:05:35;;;;;;;0.95;0.65;;;;;;;12.24;45.95;100707.91;5134795;28;20104;-79
2022/04/21 04:10:54;;;;;;;0.30;0.30;;;;;;;12.26;46.04;100702.59;5150689;28;20037;-80
2022/04/21 04:13:25;;;;;;;0.50;0.50;;;;;;;12.22;45.42;100709.75;5152248;28;20094;-80
2022/04/21 04:15:57;;;;;;;0.45;0.45;;;;;;;12.06;45.76;100708.53;5154453;28;20033;-80
2022/04/21 04:18:29;;;;;;;0.50;0.50;;;;;;;12.07;46.04;100707.63;5141277;28;20042;-81
2022/04/21 04:20:59;;;;;;;0.60;0.60;;;;;;;12.02;46.94;100706.94;5169127;28;20030;-81
2022/04/21 04:23:30;;;;;;;0.70;0.70;;;;;;;12.03;46.07;100704.25;5158322;28;20504;-80
2022/04/21 04:26:00;;;;;;;7.32;1.65;;;;;;;12.02;46.56;100706.94;5132993;28;20695;-80
2022/04/21 04:28:34;;;;;;;0.77;0.77;;;;;;;11.95;46.16;100707.09;5136573;28;20034;-79
2022/04/21 04:31:04;;;;;;;0.90;0.90;;;;;;;11.91;45.87;100704.59;5132973;28;20746;-79
2022/04/21 04:33:35;;;;;;;0.50;0.43;;;;;;;11.92;46.80;100707.19;5164446;28;20038;-80
2022/04/21 04:36:05;;;;;;;0.32;0.32;;;;;;;11.90;46.37;100709.03;5146423;28;20517;-81
2022/04/21 04:38:38;;;;;;;0.73;0.73;;;;;;;11.91;46.03;100702.84;5145213;28;20161;-79
2022/04/21 04:43:57;;;;;;;0.50;0.50;;;;;;;11.82;46.21;100705.78;5144619;28;20515;-81
2022/04/21 04:46:40;;;;;;;0.30;0.30;;;;;;;11.84;47.16;100703.97;5174540;28;20082;-80
2022/04/21 04:49:11;;;;;;;0.50;0.50;;;;;;;11.78;46.67;100701.50;5173063;28;20494;-79
2022/04/21 04:51:42;;;;;;;0.30;0.30;;;;;;;11.73;45.98;100700.81;5137718;28;20062;-80
2022/04/21 04:54:14;;;;;;;0.68;0.68;;;;;;;11.71;46.98;100703.50;5124021;28;20035;-79
2022/04/21 04:56:46;;;;;;;0.35;0.35;;;;;;;11.70;47.17;100698.28;5126772;28;20031;-79
2022/04/21 04:59:16;;;;;;;0.60;0.60;;;;;;;11.66;46.95;100702.78;5129961;28;20038;-80
2022/04/21 05:01:47;;;;;;;0.40;0.40;;;;;;;11.64;46.57;100705.47;5147539;28;20028;-79
2022/04/21 05:04:19;;;;;;;0.75;0.75;;;;;;;11.61;46.70;100702.91;5145567;28;20055;-80
2022/04/21 05:06:52;;;;;;;0.38;0.38;;;;;;;11.60;46.83;100706.47;5143805;28;20466;-78
2022/04/21 05:09:24;;;;;;;0.80;0.80;;;;;;;11.53;46.23;100709.34;5141288;28;20514;-79
2022/04/21 05:11:58;;;;;;;1.80;1.00;;;;;;;11.49;46.86;100708.56;5140449;28;20604;-79
2022/04/21 05:14:29;;;;;;;1.85;0.98;;;;;;;11.52;46.32;100702.34;5156105;28;20030;-79
2022/04/21 05:17:00;;;;;;;1.05;1.02;;;;;;;11.56;47.17;100706.63;5125431;28;20026;-79
2022/04/21 05:19:30;;;;;;;0.60;0.60;;;;;;;11.55;47.19;100702.28;5107921;28;20050;-78
2022/04/21 05:22:02;;;;;;;0.73;0.73;;;;;;;11.54;47.22;100703.19;5121988;28;20550;-79
2022/04/21 05:24:33;;;;;;;0.73;0.73;;;;;;;11.48;46.82;100698.97;5151675;28;20065;-78
2022/04/21 05:27:05;;;;;;;1.20;1.05;;;;;;;11.48;47.09;100699.84;5134436;28;20490;-79
2022/04/21 05:32:27;;;;;;;0.70;0.70;;;;;;;11.41;47.07;100687.78;5165046;28;20040;-79
2022/04/21 05:34:58;;;;;;;0.80;0.77;;;;;;;11.42;47.27;100692.13;5143261;28;20064;-80
2022/04/21 05:37:29;;;;;;;1.67;1.40;;;;;;;11.42;47.38;100694.75;5161182;28;20298;-79
2022/04/21 05:39:59;;;;;;;0.90;0.88;;;;;;;11.43;47.73;100690.38;5141635;28;20510;-79
2022/04/21 05:42:41;;;;;;;0.30;0.30;;;;;;;11.43;47.81;100698.25;5146659;28;20041;-79
2022/04/21 05:45:13;;;;;;;0.40;0.40;;;;;;;11.45;47.78;100688.53;5158721;28;20035;-80
2022/04/21 05:47:44;;;;;;;1.20;1.08;;;;;;;11.49;47.58;100683.16;5141355;28;20033;-79
2022/04/21 05:50:15;;;;;;;0.45;0.45;;;;;;;11.25;49.06;100695.28;5130691;28;20030;-79
2022/04/21 05:52:52;;;;;;;0.85;0.77;;;;;;;11.46;48.26;100692.88;5127500;28;20434;-80
2022/04/21 05:55:23;;;;;;;0.35;0.35;;;;;;;11.38;48.04;100685.28;5137800;28;20524;-79
2022/04/21 05:57:53;;;;;;;1.00;1.00;;;;;;;11.43;47.47;100683.34;5127046;28;20133;-79
2022/04/21 06:00:24;;;;;;;0.40;0.40;;;;;;;11.47;48.21;100678.84;5144054;28;20030;-79
2022/04/21 06:02:54;;;;;;;0.70;0.70;;;;;;;11.42;49.75;100683.41;5124971;28;20053;-80
2022/04/21 06:05:27;;;;;;;0.60;0.57;;;;;;;11.39;48.48;100672.97;5109934;28;20023;-79
2022/04/21 06:07:58;;;;;;;0.70;0.70;;;;;;;11.50;48.65;100676.13;5141416;28;20035;-79
2022/04/21 06:10:28;;;;;;;1.08;1.08;;;;;;;11.52;47.99;100676.09;5123334;28;20092;-79
2022/04/21 06:13:01;;;;;;;0.77;0.77;;;;;;;11.65;48.53;100667.75;5130673;28;20440;-79
2022/04/21 06:15:33;;;;;;;1.13;1.02;;;;;;;11.59;49.17;100673.22;5134790;28;20070;-81
2022/04/21 06:18:03;;;;;;;2.05;1.85;;;;;;;11.58;48.75;100682.00;5121832;28;20043;-80
2022/04/21 06:20:36;;;;;;;4.97;0.95;;;;;;;11.65;48.28;100678.28;5149924;28;20027;-80
2022/04/21 06:23:10;;;;;;;1.10;1.00;;;;;;;11.71;48.19;100678.97;5112412;28;20073;-80
2022/04/21 06:25:41;;;;;;;;;;;;;;;11.78;49.57;100677.84;5141396;28;20046;-80
2022/04/21 06:28:12;;;;;;;0.85;0.85;;;;;;;11.77;48.71;100679.63;5173670;28;19953;-80
2022/04/21 06:30:43;;;;;;;0.45;0.45;;;;;;;11.80;48.45;100676.91;5125111;28;20039;-80
2022/04/21 06:33:13;;;;;;;0.82;0.82;;;;;;;11.76;48.72;100669.19;5131076;28;20418;-80
2022/04/21 06:35:44;;;;;;;0.38;0.35;;;;;;;11.81;48.02;100675.13;5161469;28;20108;-80
2022/04/21 06:38:15;;;;;;;1.08;1.02;;;;;;;11.81;48.37;100668.13;5162942;28;20038;-80
2022/04/21 06:40:45;;;;;;;0.73;0.73;;;;;;;11.90;48.14;100671.38;5180867;28;20058;-81
2022/04/21 06:48:57;;;;;;;0.55;0.55;;;;;;;11.86;48.05;100669.72;5163929;28;20077;-81
2022/04/21 06:51:30;;;;;;;0.43;0.43;;;;;;;11.92;48.24;100669.53;5148612;28;20049;-80
2022/04/21 06:54:01;;;;;;;0.90;0.90;;;;;;;11.72;50.05;100675.44;5152858;28;20047;-80
2022/04/21 06:56:31;;;;;;;0.63;0.63;;;;;;;11.49;52.83;100672.63;5121578;29;20336;-80
2022/04/21 06:59:02;;;;;;;0.52;0.52;;;;;;;11.72;50.16;100668.44;5152404;28;20409;-79
2022/04/21 07:01:36;;;;;;;3.40;1.70;;;;;;;11.82;50.53;100672.44;5159956;28;20097;-80
2022/04/21 07:04:07;;;;;;;0.40;0.40;;;;;;;11.57;51.91;100669.78;5151971;23;20073;-78
2022/04/21 07:06:38;;;;;;;1.70;1.05;;;;;;;11.62;51.91;100673.09;5140603;28;20061;-77
2022/04/21 07:09:08;;;;;;;0.32;0.32;;;;;;;11.61;51.74;100676.63;5154497;28;20042;-78
2022/04/21 07:11:43;;;;;;;0.93;0.93;;;;;;;11.59;50.50;100678.47;5139033;28;20026;-78
2022/04/21 07:14:13;;;;;;;0.82;0.82;;;;;;;11.77;49.63;100678.78;5154375;28;20406;-77
2022/04/21 07:16:44;;;;;;;0.28;0.28;;;;;;;11.83;50.53;100675.97;5140902;28;20046;-78
2022/04/21 07:19:17;;;;;;;1.02;1.02;;;;;;;11.75;50.22;100677.97;5133452;28;20049;-77
2022/04/21 07:21:47;;;;;;;1.33;1.23;;;;;;;11.90;49.41;100681.88;5156478;28;20036;-77
2022/04/21 07:24:18;;;;;;;1.55;1.38;;;;;;;11.91;49.35;100689.72;5136398;28;20042;-79
2022/04/21 07:26:48;;;;;;;2.85;1.38;;;;;;;11.92;49.82;100687.91;5155875;28;20533;-77
2022/04/21 07:29:18;;;;;;;0.75;0.75;;;;;;;11.98;50.48;100686.91;5153492;28;20096;-79
2022/04/21 07:31:49;;;;;;;6.15;2.20;;;;;;;12.06;49.19;100687.50;5126316;28;20394;-77
2022/04/21 07:34:19;;;;;;;0.60;0.60;;;;;;;12.01;51.05;100684.19;5156358;28;20534;-77
2022/04/21 07:36:50;;;;;;;0.60;0.60;;;;;;;11.96;50.90;100685.16;5138611;28;20222;-78
2022/04/21 07:39:20;;;;;;;0.43;0.43;;;;;;;11.84;51.79;100688.19;5142335;28;20482;-77
2022/04/21 07:41:51;;;;;;;0.80;0.80;;;;;;;12.11;50.25;100683.81;5159477;28;20038;-77
2022/04/21 07:44:22;;;;;;;0.52;0.52;;;;;;;12.21;50.30;100681.72;5138711;28;20332;-77
2022/04/21 07:46:53;;;;;;;0.88;0.88;;;;;;;12.42;49.75;100676.63;5152916;28;20413;-77
2022/04/21 07:55:25;;;;;;;0.60;0.60;;;;;;;12.35;49.51;100668.09;5139648;28;20469;-77
2022/04/21 07:57:56;;;;;;;0.50;0.50;;;;;;;12.37;49.12;100657.50;5156340;28;20092;-77
2022/04/21 08:00:26;;;;;;;6.32;2.30;;;;;;;12.43;49.75;100662.56;5155184;28;20179;-78
2022/04/21 08:02:59;;;;;;;0.90;0.88;;;;;;;12.41;49.45;100659.97;5140182;28;20035;-77
2022/04/21 08:05:30;;;;;;;0.85;0.85;;;;;;;12.55;49.79;100659.47;5157473;28;20104;-78
2022/04/21 08:08:02;;;;;;;2.13;1.65;;;;;;;12.56;49.05;100648.03;5123708;28;20862;-77
2022/04/21 08:10:32;;;;;;;0.30;0.30;;;;;;;12.62;50.02;100646.06;5154162;28;20035;-78
2022/04/21 08:13:03;;;;;;;0.65;0.65;;;;;;;12.58;50.14;100656.75;5156869;28;20116;-78
2022/04/21 08:15:35;;;;;;;0.88;0.82;;;;;;;12.70;49.21;100657.19;5159481;28;20592;-77
2022/04/21 08:18:07;;;;;;;0.20;0.20;;;;;;;12.84;48.94;100652.28;5154101;28;20045;-77
2022/04/21 08:20:39;;;;;;;0.50;0.50;;;;;;;12.71;49.80;100649.25;5141660;28;20029;-78
2022/04/21 08:23:10;;;;;;;2.92;1.55;;;;;;;12.77;49.48;100657.81;5157799;28;20100;-78
2022/04/21 08:34:07;;;;;;;0.30;0.30;;;;;;;13.14;48.41;100652.00;5140708;28;20427;-77
2022/04/21 08:36:38;;;;;;;0.65;0.65;;;;;;;13.06;48.24;100657.56;5158724;28;20072;-78
2022/04/21 08:39:09;;;;;;;0.32;0.32;;;;;;;13.12;48.55;100664.38;5138262;28;20038;-78
2022/04/21 08:41:46;;;;;;;0.55;0.55;;;;;;;13.25;48.14;100656.00;5155025;28;20034;-77
2022/04/21 08:44:20;;;;;;;0.65;0.65;;;;;;;13.14;47.95;100662.56;5149753;28;20069;-77
2022/04/21 08:46:53;;;;;;;0.30;0.30;;;;;;;13.12;47.22;100659.13;5155712;28;20030;-78
2022/04/21 08:49:25;;;;;;;0.40;0.40;;;;;;;13.22;47.08;100657.00;5153830;28;20526;-77
2022/04/21 08:51:56;;;;;;;0.60;0.60;;;;;;;13.31;47.53;100653.13;5155712;28;20702;-78
2022/04/21 08:54:27;;;;;;;0.32;0.32;;;;;;;13.34;46.40;100647.75;5119768;28;20245;-78
2022/04/21 08:56:58;;;;;;;1.65;0.95;;;;;;;13.41;46.90;100653.66;5155344;28;20361;-78
2022/04/21 08:59:28;;;;;;;1.10;0.82;;;;;;;13.44;46.59;100646.47;5134543;28;20615;-77
2022/04/21 09:02:00;;;;;;;0.47;0.47;;;;;;;13.49;44.31;100647.16;5155013;28;20026;-77
2022/04/21 09:04:30;;;;;;;0.32;0.32;;;;;;;13.42;43.82;100639.56;5155236;28;20522;-78
2022/04/21 09:07:19;;;;;;;0.65;0.65;;;;;;;13.54;42.95;100642.56;5137809;28;20037;-77
2022/04/21 09:10:07;;;;;;;0.40;0.40;;;;;;;13.50;42.82;100640.09;5137282;28;20044;-79
2022/04/21 09:12:55;;;;;;;0.30;0.30;;;;;;;13.57;41.70;100638.94;5155552;28;20074;-78
2022/04/21 09:15:30;;;;;;;1.27;0.75;;;;;;;13.57;41.41;100640.72;5137726;28;20026;-78
2022/04/21 09:18:09;;;;;;;0.45;0.45;;;;;;;13.63;40.96;100637.81;5145150;28;20546;-78
2022/04/21 09:20:39;;;;;;;0.20;0.20;;;;;;;13.82;41.17;100637.91;5122145;28;20030;-78
2022/04/21 09:23:11;;;;;;;0.65;0.65;;;;;;;13.75;40.23;100633.81;5156141;28;20620;-78
2022/04/21 09:25:49;;;;;;;0.80;0.77;;;;;;;13.75;39.57;100629.41;5148715;28;20030;-78
2022/04/21 09:28:25;;;;;;;0.60;0.60;;;;;;;13.82;39.74;100622.97;5139035;28;20034;-78
2022/04/21 09:30:58;;;;;;;0.30;0.30;;;;;;;13.79;39.96;100620.44;5121169;28;20030;-79
2022/04/21 09:33:34;;;;;;;0.35;0.35;;;;;;;13.82;39.80;100616.81;5138236;28;20204;-78
2022/04/21 09:36:06;;;;;;;0.75;0.75;;;;;;;13.86;39.71;100607.88;5154954;28;20034;-78
2022/04/21 09:38:37;;;;;;;0.80;0.80;;;;;;;13.96;37.92;100606.56;5150890;28;20034;-78
2022/04/21 09:41:12;;;;;;;0.60;0.60;;;;;;;14.17;39.04;100601.25;5154367;28;20412;-78
2022/04/21 09:43:43;;;;;;;0.30;0.30;;;;;;;14.11;39.50;100605.00;5155439;28;20061;-79
2022/04/21 09:46:20;;;;;;;0.30;0.30;;;;;;;14.22;38.92;100601.03;5154774;28;20034;-77
2022/04/21 09:48:54;;;;;;;0.40;0.40;;;;;;;14.16;37.98;100603.03;5153831;28;20773;-78
2022/04/21 09:51:27;;;;;;;0.50;0.50;;;;;;;14.29;38.25;100605.13;5154394;28;20060;-78
2022/04/21 09:54:03;;;;;;;1.40;1.30;;;;;;;14.21;38.21;100601.97;5154499;28;20573;-78
2022/04/21 09:56:44;;;;;;;0.50;0.50;;;;;;;14.25;37.10;100603.56;5155545;28;20049;-78
2022/04/21 09:59:14;;;;;;;0.90;0.77;;;;;;;14.35;37.98;100607.47;5136769;28;20129;-79
2022/04/21 10:01:45;;;;;;;0.28;0.28;;;;;;;14.42;37.13;100603.63;5153281;28;20201;-78
2022/04/21 10:04:20;;;;;;;0.40;0.40;;;;;;;14.52;36.43;100597.94;5139471;28;20039;-78
2022/04/21 10:06:56;;;;;;;0.30;0.30;;;;;;;14.45;37.27;100582.38;5157471;28;20026;-77
2022/04/21 10:09:27;;;;;;;0.25;0.25;;;;;;;14.55;36.67;100589.91;5138349;28;20122;-77
2022/04/21 10:11:59;;;;;;;0.40;0.40;;;;;;;14.57;36.34;100588.06;5140214;28;20055;-77
2022/04/21 10:14:31;;;;;;;0.70;0.70;;;;;;;14.58;36.65;100584.50;5159061;28;20046;-78
2022/04/21 10:17:02;;;;;;;0.45;0.45;;;;;;;14.66;37.36;100587.66;5163107;28;20027;-78
2022/04/21 10:19:35;;;;;;;0.70;0.57;;;;;;;14.77;38.80;100579.22;5151788;28;20049;-78
2022/04/21 10:22:13;;;;;;;0.30;0.30;;;;;;;14.78;37.92;100565.94;5154864;28;20042;-78
2022/04/21 10:24:44;;;;;;;0.30;0.30;;;;;;;14.80;36.93;100552.66;5157325;28;20073;-78
2022/04/21 10:27:37;;;;;;;0.30;0.30;;;;;;;14.88;35.97;100549.66;5135451;28;20397;-79
2022/04/21 10:30:13;;;;;;;0.28;0.28;;;;;;;14.94;37.25;100549.38;5151012;28;20054;-78
2022/04/21 10:32:46;;;;;;;0.47;0.47;;;;;;;15.00;36.62;100554.34;5146005;28;20065;-78
2022/04/21 10:35:38;;;;;;;0.50;0.50;;;;;;;15.11;35.49;100556.50;5134446;28;20041;-78
2022/04/21 10:38:15;;;;;;;0.70;0.43;;;;;;;15.07;37.15;100544.34;5161970;28;20081;-78
2022/04/21 10:41:10;;;;;;;0.32;0.32;;;;;;;15.25;36.44;100545.22;5147953;28;20038;-77
2022/04/21 10:43:56;;;;;;;2.20;0.40;;;;;;;15.26;36.58;100537.22;5156341;28;20042;-78
2022/04/21 10:46:26;;;;;;;0.25;0.25;;;;;;;15.46;36.10;100539.81;5156172;28;20022;-77
2022/04/21 10:48:58;;;;;;;0.35;0.35;;;;;;;15.40;36.38;100544.47;5152983;28;20049;-78
2022/04/21 10:57:12;;;;;;;0.93;0.68;;;;;;;15.46;36.67;100534.53;5150330;28;20514;-77
2022/04/21 10:57:33;;;;;;;0.90;0.90;;;;;;;15.62;36.54;100524.88;5152332;28;20041;-78
2022/04/21 11:00:05;;;;;;;0.30;0.30;;;;;;;15.68;37.28;100523.69;5136786;28;20038;-78
2022/04/21 11:02:39;;;;;;;0.57;0.57;;;;;;;15.80;37.56;100530.16;5137014;28;20133;-78
2022/04/21 11:05:22;;;;;;;0.43;0.43;;;;;;;15.69;38.29;100520.97;5136600;28;20034;-78
2022/04/21 11:07:57;;;;;;;0.77;0.77;;;;;;;15.72;37.61;100512.88;5137683;28;20065;-78
2022/04/21 11:10:41;;;;;;;1.30;0.52;;;;;;;15.71;37.74;100513.81;5151315;28;20402;-79
2022/04/21 11:13:33;;;;;;;0.45;0.45;;;;;;;15.84;37.73;100523.78;5154186;28;20052;-78
2022/04/21 11:16:03;;;;;;;0.93;0.93;;;;;;;15.87;37.85;100523.63;5136609;28;20446;-78
2022/04/21 11:18:34;;;;;;;0.20;0.20;;;;;;;15.94;37.88;100509.13;5122276;28;20042;-79
2022/04/21 11:21:25;;;;;;;0.57;0.57;;;;;;;16.00;37.62;100516.75;5137161;28;20049;-78
2022/04/21 11:24:03;;;;;;;0.68;0.68;;;;;;;16.03;37.34;100511.28;5149665;28;20060;-78
2022/04/21 11:26:33;;;;;;;0.30;0.30;;;;;;;16.07;37.40;100514.63;5160403;28;20085;-78
2022/04/21 11:29:04;;;;;;;0.30;0.30;;;;;;;15.82;36.79;100515.06;5154190;28;20042;-78
2022/04/21 11:31:34;;;;;;;0.55;0.55;;;;;;;15.88;37.29;100509.47;5122277;28;20074;-77
2022/04/21 11:34:05;;;;;;;0.45;0.45;;;;;;;15.89;36.58;100508.53;5155754;28;20047;-77
2022/04/21 11:36:40;;;;;;;0.50;0.50;;;;;;;15.78;37.36;100513.50;5138954;28;20406;-78
2022/04/21 11:39:13;;;;;;;0.30;0.30;;;;;;;15.96;37.21;100501.97;5157242;28;20077;-78
2022/04/21 11:41:46;;;;;;;0.22;0.22;;;;;;;16.12;37.36;100498.50;5146602;28;20030;-78
2022/04/21 11:44:23;;;;;;;0.30;0.30;;;;;;;16.16;37.36;100497.38;5159122;28;20096;-78
2022/04/21 11:46:54;;;;;;;0.30;0.30;;;;;;;16.10;37.36;100503.91;5158236;28;20434;-78
2022/04/21 11:49:24;;;;;;;0.40;0.40;;;;;;;15.87;37.40;100489.22;5136592;28;20141;-78
2022/04/21 11:51:55;;;;;;;0.38;0.38;;;;;;;16.17;37.96;100494.69;5141619;28;20034;-77
2022/04/21 11:54:25;;;;;;;0.43;0.43;;;;;;;16.17;38.05;100499.09;5140963;28;20046;-77
2022/04/21 11:56:55;;;;;;;0.40;0.40;;;;;;;16.05;37.40;100504.13;5157828;28;20264;-77
2022/04/21 11:59:35;;;;;;;0.57;0.57;;;;;;;16.17;37.97;100505.28;5152433;28;20516;-77
2022/04/21 12:07:48;;;;;;;0.50;0.50;;;;;;;16.10;38.33;100503.03;5138922;28;20123;-78
2022/04/21 12:10:18;;;;;;;1.40;1.30;;;;;;;16.24;38.46;100495.19;5140087;28;20049;-77
2022/04/21 12:12:49;;;;;;;3.42;0.77;;;;;;;16.29;38.59;100487.84;5123522;28;20311;-79
2022/04/21 12:15:28;;;;;;;0.20;0.20;;;;;;;16.19;37.89;100491.94;5124558;28;20040;-77
2022/04/21 12:17:59;;;;;;;0.82;0.82;;;;;;;16.26;38.26;100493.31;5154230;28;20049;-78
2022/04/21 12:20:30;;;;;;;0.38;0.38;;;;;;;16.33;38.91;100486.72;5131443;28;20026;-77
2022/04/21 12:23:00;;;;;;;2.42;0.93;;;;;;;16.38;39.34;100481.19;5154027;28;20042;-78
2022/04/21 12:25:32;;;;;;;1.02;1.02;;;;;;;16.68;38.85;100483.94;5154573;28;20478;-78
2022/04/21 12:28:07;;;;;;;0.30;0.30;;;;;;;16.35;39.01;100471.63;5151446;28;20054;-78
2022/04/21 12:30:40;;;;;;;10.43;1.75;;;;;;;16.44;39.26;100478.22;5119841;28;20070;-78
2022/04/21 12:33:11;;;;;;;2.30;0.47;;;;;;;16.27;39.66;100473.00;5157422;28;20125;-78
2022/04/21 12:35:46;;;;;;;0.40;0.40;;;;;;;16.33;40.29;100484.09;5155710;28;20391;-78
2022/04/21 12:41:07;;;;;;;0.50;0.43;;;;;;;16.43;40.19;100473.88;5151402;28;20646;-77
2022/04/21 12:43:38;;;;;;;1.85;0.50;;;;;;;16.71;40.14;100467.00;5152953;28;20045;-76
2022/04/21 12:46:09;;;;;;;0.38;0.38;;;;;;;16.86;39.78;100462.63;5154916;28;20503;-77